sensor_id;sensor_type;location;lat;lon;timestamp;P1;durP1;ratioP1;P2;durP2;ratioP2
69779;SDS011;57052;55.602;38.096;2024-01-30T00:01:51;11.02;;;5.10;;
69779;SDS011;57052;55.602;38.096;2024-01-30T00:04:16;13.10;;;5.15;;
69779;SDS011;57052;55.602;38.096;2024-01-30T00:06:43;11.60;;;4.95;;
69779;SDS011;57052;55.602;38.096;2024-01-30T00:09:09;12.30;;;4.88;;
69779;SDS011;57052;55.602;38.096;2024-01-30T00:11:36;14.70;;;5.50;;
69779;SDS011;57052;55.602;38.096;2024-01-30T00:14:03;14.20;;;5.65;;
69779;SDS011;57052;55.602;38.096;2024-01-30T00:16:29;12.43;;;4.75;;
69779;SDS011;57052;55.602;38.096;2024-01-30T00:18:54;13.85;;;5.13;;
69779;SDS011;57052;55.602;38.096;2024-01-30T00:21:20;10.88;;;4.90;;
69779;SDS011;57052;55.602;38.096;2024-01-30T00:23:46;14.20;;;5.47;;
69779;SDS011;57052;55.602;38.096;2024-01-30T00:26:12;12.90;;;5.55;;
69779;SDS011;57052;55.602;38.096;2024-01-30T00:28:40;12.50;;;5.25;;
69779;SDS011;57052;55.602;38.096;2024-01-30T00:31:07;12.73;;;4.50;;
69779;SDS011;57052;55.602;38.096;2024-01-30T00:33:34;14.48;;;5.57;;
69779;SDS011;57052;55.602;38.096;2024-01-30T00:35:59;14.52;;;5.63;;
69779;SDS011;57052;55.602;38.096;2024-01-30T00:38:25;14.90;;;5.28;;
69779;SDS011;57052;55.602;38.096;2024-01-30T00:40:51;13.70;;;5.80;;
69779;SDS011;57052;55.602;38.096;2024-01-30T00:43:16;14.15;;;5.30;;
69779;SDS011;57052;55.602;38.096;2024-01-30T00:45:45;12.88;;;5.38;;
69779;SDS011;57052;55.602;38.096;2024-01-30T00:48:11;12.57;;;5.53;;
69779;SDS011;57052;55.602;38.096;2024-01-30T00:50:37;10.25;;;4.72;;
69779;SDS011;57052;55.602;38.096;2024-01-30T00:53:03;14.65;;;5.65;;
69779;SDS011;57052;55.602;38.096;2024-01-30T00:55:28;13.77;;;5.20;;
69779;SDS011;57052;55.602;38.096;2024-01-30T00:57:54;11.95;;;4.47;;
69779;SDS011;57052;55.602;38.096;2024-01-30T01:00:20;12.18;;;4.90;;
69779;SDS011;57052;55.602;38.096;2024-01-30T01:02:46;11.57;;;4.60;;
69779;SDS011;57052;55.602;38.096;2024-01-30T01:05:12;15.55;;;5.60;;
69779;SDS011;57052;55.602;38.096;2024-01-30T01:07:38;12.48;;;5.22;;
69779;SDS011;57052;55.602;38.096;2024-01-30T01:10:05;12.73;;;4.88;;
69779;SDS011;57052;55.602;38.096;2024-01-30T01:12:31;12.27;;;4.90;;
69779;SDS011;57052;55.602;38.096;2024-01-30T01:14:57;14.18;;;5.43;;
69779;SDS011;57052;55.602;38.096;2024-01-30T01:17:23;12.55;;;4.93;;
69779;SDS011;57052;55.602;38.096;2024-01-30T01:19:48;11.57;;;5.07;;
69779;SDS011;57052;55.602;38.096;2024-01-30T01:22:15;12.32;;;5.28;;
69779;SDS011;57052;55.602;38.096;2024-01-30T01:24:42;12.63;;;4.53;;
69779;SDS011;57052;55.602;38.096;2024-01-30T01:27:08;11.57;;;5.22;;
69779;SDS011;57052;55.602;38.096;2024-01-30T01:29:34;11.55;;;4.82;;
69779;SDS011;57052;55.602;38.096;2024-01-30T01:31:59;12.48;;;5.15;;
69779;SDS011;57052;55.602;38.096;2024-01-30T01:34:25;10.55;;;4.63;;
69779;SDS011;57052;55.602;38.096;2024-01-30T01:36:51;11.50;;;4.47;;
69779;SDS011;57052;55.602;38.096;2024-01-30T01:39:20;12.77;;;4.47;;
69779;SDS011;57052;55.602;38.096;2024-01-30T01:41:47;13.98;;;4.90;;
69779;SDS011;57052;55.602;38.096;2024-01-30T01:44:13;10.07;;;4.43;;
69779;SDS011;57052;55.602;38.096;2024-01-30T01:46:39;12.20;;;4.95;;
69779;SDS011;57052;55.602;38.096;2024-01-30T01:49:05;10.32;;;4.78;;
69779;SDS011;57052;55.602;38.096;2024-01-30T01:51:33;10.23;;;4.68;;
69779;SDS011;57052;55.602;38.096;2024-01-30T01:54:03;9.55;;;4.47;;
69779;SDS011;57052;55.602;38.096;2024-01-30T01:56:30;11.25;;;4.80;;
69779;SDS011;57052;55.602;38.096;2024-01-30T01:58:58;10.55;;;4.50;;
69779;SDS011;57052;55.602;38.096;2024-01-30T02:01:26;11.75;;;4.70;;
69779;SDS011;57052;55.602;38.096;2024-01-30T02:03:54;13.30;;;5.32;;
69779;SDS011;57052;55.602;38.096;2024-01-30T02:06:21;12.95;;;4.93;;
69779;SDS011;57052;55.602;38.096;2024-01-30T02:08:47;11.10;;;4.93;;
69779;SDS011;57052;55.602;38.096;2024-01-30T02:11:12;10.93;;;4.43;;
69779;SDS011;57052;55.602;38.096;2024-01-30T02:13:39;11.40;;;4.97;;
69779;SDS011;57052;55.602;38.096;2024-01-30T02:16:06;13.13;;;5.10;;
69779;SDS011;57052;55.602;38.096;2024-01-30T02:18:32;12.90;;;5.18;;
69779;SDS011;57052;55.602;38.096;2024-01-30T02:21:16;9.27;;;4.40;;
69779;SDS011;57052;55.602;38.096;2024-01-30T02:23:44;11.40;;;4.95;;
69779;SDS011;57052;55.602;38.096;2024-01-30T02:26:12;11.80;;;4.82;;
69779;SDS011;57052;55.602;38.096;2024-01-30T02:28:38;11.48;;;5.18;;
69779;SDS011;57052;55.602;38.096;2024-01-30T02:31:04;11.13;;;5.10;;
69779;SDS011;57052;55.602;38.096;2024-01-30T02:33:30;9.88;;;4.75;;
69779;SDS011;57052;55.602;38.096;2024-01-30T02:35:56;12.23;;;5.00;;
69779;SDS011;57052;55.602;38.096;2024-01-30T02:38:22;9.88;;;4.80;;
69779;SDS011;57052;55.602;38.096;2024-01-30T02:40:49;11.90;;;5.10;;
69779;SDS011;57052;55.602;38.096;2024-01-30T02:43:15;11.48;;;5.13;;
69779;SDS011;57052;55.602;38.096;2024-01-30T02:45:42;11.40;;;5.05;;
69779;SDS011;57052;55.602;38.096;2024-01-30T02:48:08;10.68;;;4.82;;
69779;SDS011;57052;55.602;38.096;2024-01-30T02:50:34;11.13;;;4.82;;
69779;SDS011;57052;55.602;38.096;2024-01-30T02:53:00;12.63;;;5.53;;
69779;SDS011;57052;55.602;38.096;2024-01-30T02:55:26;14.00;;;5.03;;
69779;SDS011;57052;55.602;38.096;2024-01-30T02:57:51;10.75;;;4.85;;
69779;SDS011;57052;55.602;38.096;2024-01-30T03:00:20;11.80;;;4.90;;
69779;SDS011;57052;55.602;38.096;2024-01-30T03:02:46;10.18;;;4.60;;
69779;SDS011;57052;55.602;38.096;2024-01-30T03:05:12;11.05;;;5.35;;
69779;SDS011;57052;55.602;38.096;2024-01-30T03:07:37;10.10;;;4.60;;
69779;SDS011;57052;55.602;38.096;2024-01-30T03:10:06;11.63;;;5.20;;
69779;SDS011;57052;55.602;38.096;2024-01-30T03:12:32;11.38;;;4.80;;
69779;SDS011;57052;55.602;38.096;2024-01-30T03:14:58;11.52;;;5.03;;
69779;SDS011;57052;55.602;38.096;2024-01-30T03:17:24;11.25;;;5.18;;
69779;SDS011;57052;55.602;38.096;2024-01-30T03:19:50;10.73;;;4.90;;
69779;SDS011;57052;55.602;38.096;2024-01-30T03:22:16;10.15;;;4.68;;
69779;SDS011;57052;55.602;38.096;2024-01-30T03:24:42;12.50;;;5.18;;
69779;SDS011;57052;55.602;38.096;2024-01-30T03:27:08;12.23;;;5.07;;
69779;SDS011;57052;55.602;38.096;2024-01-30T03:29:34;11.68;;;4.97;;
69779;SDS011;57052;55.602;38.096;2024-01-30T03:32:00;12.90;;;4.60;;
69779;SDS011;57052;55.602;38.096;2024-01-30T03:34:26;10.80;;;4.85;;
69779;SDS011;57052;55.602;38.096;2024-01-30T03:36:52;9.73;;;4.60;;
69779;SDS011;57052;55.602;38.096;2024-01-30T03:39:17;12.95;;;5.75;;
69779;SDS011;57052;55.602;38.096;2024-01-30T03:41:44;11.85;;;5.22;;
69779;SDS011;57052;55.602;38.096;2024-01-30T03:44:10;14.15;;;5.00;;
69779;SDS011;57052;55.602;38.096;2024-01-30T03:46:36;11.93;;;5.05;;
69779;SDS011;57052;55.602;38.096;2024-01-30T03:49:02;11.15;;;5.10;;
69779;SDS011;57052;55.602;38.096;2024-01-30T03:51:28;13.07;;;5.47;;
69779;SDS011;57052;55.602;38.096;2024-01-30T03:53:55;10.82;;;4.85;;
69779;SDS011;57052;55.602;38.096;2024-01-30T03:56:21;14.07;;;4.78;;
69779;SDS011;57052;55.602;38.096;2024-01-30T03:58:47;10.98;;;5.30;;
69779;SDS011;57052;55.602;38.096;2024-01-30T04:01:15;13.63;;;5.60;;
69779;SDS011;57052;55.602;38.096;2024-01-30T04:03:41;11.63;;;4.97;;
69779;SDS011;57052;55.602;38.096;2024-01-30T04:06:09;10.95;;;4.70;;
69779;SDS011;57052;55.602;38.096;2024-01-30T04:08:34;12.48;;;4.88;;
69779;SDS011;57052;55.602;38.096;2024-01-30T04:11:06;11.27;;;4.85;;
69779;SDS011;57052;55.602;38.096;2024-01-30T04:13:33;12.38;;;4.80;;
69779;SDS011;57052;55.602;38.096;2024-01-30T04:16:02;11.57;;;4.72;;
69779;SDS011;57052;55.602;38.096;2024-01-30T04:18:28;9.93;;;4.38;;
69779;SDS011;57052;55.602;38.096;2024-01-30T04:20:55;11.27;;;5.00;;
69779;SDS011;57052;55.602;38.096;2024-01-30T04:23:21;10.68;;;4.78;;
69779;SDS011;57052;55.602;38.096;2024-01-30T04:25:48;10.13;;;4.68;;
69779;SDS011;57052;55.602;38.096;2024-01-30T04:28:14;11.35;;;4.63;;
69779;SDS011;57052;55.602;38.096;2024-01-30T04:30:40;9.55;;;5.22;;
69779;SDS011;57052;55.602;38.096;2024-01-30T04:33:05;10.43;;;5.03;;
69779;SDS011;57052;55.602;38.096;2024-01-30T04:35:31;11.10;;;5.15;;
69779;SDS011;57052;55.602;38.096;2024-01-30T04:37:57;12.77;;;4.97;;
69779;SDS011;57052;55.602;38.096;2024-01-30T04:40:23;10.90;;;5.00;;
69779;SDS011;57052;55.602;38.096;2024-01-30T04:42:48;10.07;;;5.30;;
69779;SDS011;57052;55.602;38.096;2024-01-30T04:45:14;11.63;;;5.10;;
69779;SDS011;57052;55.602;38.096;2024-01-30T04:47:40;12.38;;;4.82;;
69779;SDS011;57052;55.602;38.096;2024-01-30T04:50:06;11.15;;;4.80;;
69779;SDS011;57052;55.602;38.096;2024-01-30T04:52:33;14.25;;;5.50;;
69779;SDS011;57052;55.602;38.096;2024-01-30T04:54:58;10.07;;;4.70;;
69779;SDS011;57052;55.602;38.096;2024-01-30T04:57:24;11.77;;;5.22;;
69779;SDS011;57052;55.602;38.096;2024-01-30T04:59:50;10.90;;;4.90;;
69779;SDS011;57052;55.602;38.096;2024-01-30T05:02:16;9.95;;;5.15;;
69779;SDS011;57052;55.602;38.096;2024-01-30T05:04:41;9.98;;;4.78;;
69779;SDS011;57052;55.602;38.096;2024-01-30T05:07:07;10.70;;;4.53;;
69779;SDS011;57052;55.602;38.096;2024-01-30T05:09:33;11.65;;;4.85;;
69779;SDS011;57052;55.602;38.096;2024-01-30T05:11:58;11.95;;;5.13;;
69779;SDS011;57052;55.602;38.096;2024-01-30T05:14:24;11.23;;;5.00;;
69779;SDS011;57052;55.602;38.096;2024-01-30T05:16:50;10.98;;;5.10;;
69779;SDS011;57052;55.602;38.096;2024-01-30T05:19:15;11.02;;;5.07;;
69779;SDS011;57052;55.602;38.096;2024-01-30T05:21:42;11.35;;;4.75;;
69779;SDS011;57052;55.602;38.096;2024-01-30T05:24:08;12.38;;;4.85;;
69779;SDS011;57052;55.602;38.096;2024-01-30T05:26:35;16.27;;;5.35;;
69779;SDS011;57052;55.602;38.096;2024-01-30T05:29:01;13.65;;;4.90;;
69779;SDS011;57052;55.602;38.096;2024-01-30T05:31:27;11.90;;;5.30;;
69779;SDS011;57052;55.602;38.096;2024-01-30T05:33:54;11.05;;;5.00;;
69779;SDS011;57052;55.602;38.096;2024-01-30T05:36:19;11.65;;;5.35;;
69779;SDS011;57052;55.602;38.096;2024-01-30T05:38:46;10.02;;;5.20;;
69779;SDS011;57052;55.602;38.096;2024-01-30T05:41:11;11.35;;;5.32;;
69779;SDS011;57052;55.602;38.096;2024-01-30T05:43:37;9.63;;;4.53;;
69779;SDS011;57052;55.602;38.096;2024-01-30T05:46:03;12.75;;;5.38;;
69779;SDS011;57052;55.602;38.096;2024-01-30T05:48:28;10.52;;;5.10;;
69779;SDS011;57052;55.602;38.096;2024-01-30T05:50:54;11.85;;;5.20;;
69779;SDS011;57052;55.602;38.096;2024-01-30T05:53:20;12.60;;;5.25;;
69779;SDS011;57052;55.602;38.096;2024-01-30T05:55:45;9.98;;;4.85;;
69779;SDS011;57052;55.602;38.096;2024-01-30T05:58:11;10.55;;;4.90;;
69779;SDS011;57052;55.602;38.096;2024-01-30T06:00:37;12.18;;;5.18;;
69779;SDS011;57052;55.602;38.096;2024-01-30T06:03:03;11.50;;;5.13;;
69779;SDS011;57052;55.602;38.096;2024-01-30T06:05:28;13.98;;;5.22;;
69779;SDS011;57052;55.602;38.096;2024-01-30T06:07:54;12.23;;;5.43;;
69779;SDS011;57052;55.602;38.096;2024-01-30T06:10:20;11.45;;;5.25;;
69779;SDS011;57052;55.602;38.096;2024-01-30T06:12:45;9.40;;;4.43;;
69779;SDS011;57052;55.602;38.096;2024-01-30T06:15:11;13.23;;;5.07;;
69779;SDS011;57052;55.602;38.096;2024-01-30T06:17:38;12.23;;;5.47;;
69779;SDS011;57052;55.602;38.096;2024-01-30T06:20:04;12.52;;;5.38;;
69779;SDS011;57052;55.602;38.096;2024-01-30T06:22:31;14.90;;;5.82;;
69779;SDS011;57052;55.602;38.096;2024-01-30T06:24:56;11.05;;;5.25;;
69779;SDS011;57052;55.602;38.096;2024-01-30T06:27:22;13.85;;;5.45;;
69779;SDS011;57052;55.602;38.096;2024-01-30T06:29:48;12.55;;;5.97;;
69779;SDS011;57052;55.602;38.096;2024-01-30T06:32:13;13.75;;;5.35;;
69779;SDS011;57052;55.602;38.096;2024-01-30T06:34:40;15.07;;;5.53;;
69779;SDS011;57052;55.602;38.096;2024-01-30T06:37:06;11.30;;;5.20;;
69779;SDS011;57052;55.602;38.096;2024-01-30T06:39:32;12.90;;;5.63;;
69779;SDS011;57052;55.602;38.096;2024-01-30T06:41:58;12.50;;;5.00;;
69779;SDS011;57052;55.602;38.096;2024-01-30T06:44:23;12.30;;;5.43;;
69779;SDS011;57052;55.602;38.096;2024-01-30T06:46:49;13.90;;;5.65;;
69779;SDS011;57052;55.602;38.096;2024-01-30T06:49:15;15.75;;;6.38;;
69779;SDS011;57052;55.602;38.096;2024-01-30T06:51:40;11.75;;;5.68;;
69779;SDS011;57052;55.602;38.096;2024-01-30T06:54:06;10.88;;;5.38;;
69779;SDS011;57052;55.602;38.096;2024-01-30T06:56:32;13.10;;;5.90;;
69779;SDS011;57052;55.602;38.096;2024-01-30T06:58:57;13.98;;;6.28;;
69779;SDS011;57052;55.602;38.096;2024-01-30T07:01:30;14.27;;;5.97;;
69779;SDS011;57052;55.602;38.096;2024-01-30T07:03:57;14.23;;;6.13;;
69779;SDS011;57052;55.602;38.096;2024-01-30T07:06:23;14.98;;;6.18;;
69779;SDS011;57052;55.602;38.096;2024-01-30T07:08:49;13.68;;;5.93;;
69779;SDS011;57052;55.602;38.096;2024-01-30T07:11:21;15.18;;;5.82;;
69779;SDS011;57052;55.602;38.096;2024-01-30T07:13:50;13.80;;;6.55;;
69779;SDS011;57052;55.602;38.096;2024-01-30T07:16:16;15.02;;;5.80;;
69779;SDS011;57052;55.602;38.096;2024-01-30T07:18:43;15.90;;;5.95;;
69779;SDS011;57052;55.602;38.096;2024-01-30T07:21:09;14.43;;;6.22;;
69779;SDS011;57052;55.602;38.096;2024-01-30T07:23:35;13.73;;;5.82;;
69779;SDS011;57052;55.602;38.096;2024-01-30T07:26:04;14.23;;;5.80;;
69779;SDS011;57052;55.602;38.096;2024-01-30T07:28:48;18.40;;;6.80;;
69779;SDS011;57052;55.602;38.096;2024-01-30T07:31:15;13.80;;;6.28;;
69779;SDS011;57052;55.602;38.096;2024-01-30T07:33:41;15.60;;;6.63;;
69779;SDS011;57052;55.602;38.096;2024-01-30T07:36:07;13.98;;;5.70;;
69779;SDS011;57052;55.602;38.096;2024-01-30T07:38:32;15.45;;;6.82;;
69779;SDS011;57052;55.602;38.096;2024-01-30T07:40:58;14.35;;;5.90;;
69779;SDS011;57052;55.602;38.096;2024-01-30T07:43:24;14.88;;;6.30;;
69779;SDS011;57052;55.602;38.096;2024-01-30T07:45:49;14.95;;;6.40;;
69779;SDS011;57052;55.602;38.096;2024-01-30T07:48:15;16.27;;;6.25;;
69779;SDS011;57052;55.602;38.096;2024-01-30T07:50:41;20.27;;;7.97;;
69779;SDS011;57052;55.602;38.096;2024-01-30T07:53:07;18.23;;;7.05;;
69779;SDS011;57052;55.602;38.096;2024-01-30T07:55:36;19.33;;;6.65;;
69779;SDS011;57052;55.602;38.096;2024-01-30T07:58:41;15.98;;;6.82;;
69779;SDS011;57052;55.602;38.096;2024-01-30T08:01:07;14.23;;;6.32;;
69779;SDS011;57052;55.602;38.096;2024-01-30T08:03:33;18.23;;;6.47;;
69779;SDS011;57052;55.602;38.096;2024-01-30T08:05:59;16.25;;;6.50;;
69779;SDS011;57052;55.602;38.096;2024-01-30T08:08:25;14.10;;;6.60;;
69779;SDS011;57052;55.602;38.096;2024-01-30T08:10:52;15.57;;;6.28;;
69779;SDS011;57052;55.602;38.096;2024-01-30T08:13:17;15.65;;;6.70;;
69779;SDS011;57052;55.602;38.096;2024-01-30T08:15:43;16.45;;;6.63;;
69779;SDS011;57052;55.602;38.096;2024-01-30T08:18:09;14.48;;;6.38;;
69779;SDS011;57052;55.602;38.096;2024-01-30T08:20:35;15.70;;;6.22;;
69779;SDS011;57052;55.602;38.096;2024-01-30T08:23:00;14.90;;;6.22;;
69779;SDS011;57052;55.602;38.096;2024-01-30T08:25:26;14.57;;;6.22;;
69779;SDS011;57052;55.602;38.096;2024-01-30T08:27:52;15.73;;;6.88;;
69779;SDS011;57052;55.602;38.096;2024-01-30T08:30:18;16.83;;;6.10;;
69779;SDS011;57052;55.602;38.096;2024-01-30T08:32:44;15.57;;;6.63;;
69779;SDS011;57052;55.602;38.096;2024-01-30T08:35:10;17.30;;;7.07;;
69779;SDS011;57052;55.602;38.096;2024-01-30T08:37:39;17.23;;;6.50;;
69779;SDS011;57052;55.602;38.096;2024-01-30T08:40:05;14.27;;;5.95;;
69779;SDS011;57052;55.602;38.096;2024-01-30T08:42:31;12.98;;;6.47;;
69779;SDS011;57052;55.602;38.096;2024-01-30T08:44:57;17.65;;;6.45;;
69779;SDS011;57052;55.602;38.096;2024-01-30T08:47:22;13.85;;;6.18;;
69779;SDS011;57052;55.602;38.096;2024-01-30T08:49:48;16.48;;;6.70;;
69779;SDS011;57052;55.602;38.096;2024-01-30T08:52:14;15.07;;;6.25;;
69779;SDS011;57052;55.602;38.096;2024-01-30T08:54:39;14.32;;;6.65;;
69779;SDS011;57052;55.602;38.096;2024-01-30T08:57:05;15.07;;;7.05;;
69779;SDS011;57052;55.602;38.096;2024-01-30T08:59:31;17.65;;;7.00;;
69779;SDS011;57052;55.602;38.096;2024-01-30T09:01:57;14.18;;;6.72;;
69779;SDS011;57052;55.602;38.096;2024-01-30T09:04:24;16.15;;;6.05;;
69779;SDS011;57052;55.602;38.096;2024-01-30T09:06:51;14.48;;;6.55;;
69779;SDS011;57052;55.602;38.096;2024-01-30T09:09:17;15.75;;;6.28;;
69779;SDS011;57052;55.602;38.096;2024-01-30T09:11:43;14.52;;;6.70;;
69779;SDS011;57052;55.602;38.096;2024-01-30T09:14:09;14.57;;;6.35;;
69779;SDS011;57052;55.602;38.096;2024-01-30T09:16:35;15.25;;;6.35;;
69779;SDS011;57052;55.602;38.096;2024-01-30T09:19:01;14.80;;;6.47;;
69779;SDS011;57052;55.602;38.096;2024-01-30T09:21:27;17.55;;;7.32;;
69779;SDS011;57052;55.602;38.096;2024-01-30T09:23:54;16.45;;;6.80;;
69779;SDS011;57052;55.602;38.096;2024-01-30T09:26:20;15.10;;;6.57;;
69779;SDS011;57052;55.602;38.096;2024-01-30T09:28:46;14.65;;;6.40;;
69779;SDS011;57052;55.602;38.096;2024-01-30T09:31:12;18.00;;;7.07;;
69779;SDS011;57052;55.602;38.096;2024-01-30T09:33:38;13.55;;;6.40;;
69779;SDS011;57052;55.602;38.096;2024-01-30T09:36:04;14.48;;;6.45;;
69779;SDS011;57052;55.602;38.096;2024-01-30T09:38:31;14.23;;;6.53;;
69779;SDS011;57052;55.602;38.096;2024-01-30T09:40:56;18.35;;;7.03;;
69779;SDS011;57052;55.602;38.096;2024-01-30T09:43:31;13.43;;;6.90;;
69779;SDS011;57052;55.602;38.096;2024-01-30T09:45:59;15.07;;;6.78;;
69779;SDS011;57052;55.602;38.096;2024-01-30T09:48:28;15.50;;;7.38;;
69779;SDS011;57052;55.602;38.096;2024-01-30T09:50:56;14.55;;;6.28;;
69779;SDS011;57052;55.602;38.096;2024-01-30T09:53:22;16.98;;;6.43;;
69779;SDS011;57052;55.602;38.096;2024-01-30T09:55:49;17.45;;;6.70;;
69779;SDS011;57052;55.602;38.096;2024-01-30T09:58:16;16.15;;;7.22;;
69779;SDS011;57052;55.602;38.096;2024-01-30T10:00:42;14.55;;;6.40;;
69779;SDS011;57052;55.602;38.096;2024-01-30T10:03:08;15.40;;;6.75;;
69779;SDS011;57052;55.602;38.096;2024-01-30T10:05:35;16.10;;;6.60;;
69779;SDS011;57052;55.602;38.096;2024-01-30T10:08:05;15.23;;;6.75;;
69779;SDS011;57052;55.602;38.096;2024-01-30T10:10:35;16.83;;;7.50;;
69779;SDS011;57052;55.602;38.096;2024-01-30T10:13:01;17.80;;;7.95;;
69779;SDS011;57052;55.602;38.096;2024-01-30T10:15:28;16.55;;;7.18;;
69779;SDS011;57052;55.602;38.096;2024-01-30T10:17:54;17.73;;;7.53;;
69779;SDS011;57052;55.602;38.096;2024-01-30T10:20:20;19.40;;;6.82;;
69779;SDS011;57052;55.602;38.096;2024-01-30T10:22:48;16.25;;;7.13;;
69779;SDS011;57052;55.602;38.096;2024-01-30T10:25:14;16.63;;;7.43;;
69779;SDS011;57052;55.602;38.096;2024-01-30T10:27:41;16.00;;;7.05;;
69779;SDS011;57052;55.602;38.096;2024-01-30T10:30:07;15.98;;;7.13;;
69779;SDS011;57052;55.602;38.096;2024-01-30T10:32:33;16.45;;;7.25;;
69779;SDS011;57052;55.602;38.096;2024-01-30T10:34:59;16.73;;;6.93;;
69779;SDS011;57052;55.602;38.096;2024-01-30T10:37:25;14.98;;;7.07;;
69779;SDS011;57052;55.602;38.096;2024-01-30T10:39:52;16.80;;;6.60;;
69779;SDS011;57052;55.602;38.096;2024-01-30T10:42:23;14.68;;;6.82;;
69779;SDS011;57052;55.602;38.096;2024-01-30T10:47:34;18.27;;;7.32;;
69779;SDS011;57052;55.602;38.096;2024-01-30T10:50:04;15.45;;;6.90;;
69779;SDS011;57052;55.602;38.096;2024-01-30T10:52:31;14.30;;;6.85;;
69779;SDS011;57052;55.602;38.096;2024-01-30T10:54:58;31.85;;;12.65;;
69779;SDS011;57052;55.602;38.096;2024-01-30T10:57:25;17.27;;;8.10;;
69779;SDS011;57052;55.602;38.096;2024-01-30T10:59:52;20.60;;;7.40;;
69779;SDS011;57052;55.602;38.096;2024-01-30T11:02:22;18.45;;;7.30;;
69779;SDS011;57052;55.602;38.096;2024-01-30T11:04:49;16.45;;;7.60;;
69779;SDS011;57052;55.602;38.096;2024-01-30T11:07:16;15.55;;;7.45;;
69779;SDS011;57052;55.602;38.096;2024-01-30T11:09:52;20.20;;;7.30;;
69779;SDS011;57052;55.602;38.096;2024-01-30T11:12:22;15.48;;;7.38;;
69779;SDS011;57052;55.602;38.096;2024-01-30T11:14:49;16.75;;;7.25;;
69779;SDS011;57052;55.602;38.096;2024-01-30T11:17:15;21.02;;;8.02;;
69779;SDS011;57052;55.602;38.096;2024-01-30T11:19:41;16.17;;;6.97;;
69779;SDS011;57052;55.602;38.096;2024-01-30T11:22:10;15.13;;;7.15;;
69779;SDS011;57052;55.602;38.096;2024-01-30T11:24:40;23.15;;;7.55;;
69779;SDS011;57052;55.602;38.096;2024-01-30T11:27:10;20.00;;;7.00;;
69779;SDS011;57052;55.602;38.096;2024-01-30T11:29:36;16.73;;;7.55;;
69779;SDS011;57052;55.602;38.096;2024-01-30T11:32:02;16.10;;;7.07;;
69779;SDS011;57052;55.602;38.096;2024-01-30T11:34:28;15.95;;;7.05;;
69779;SDS011;57052;55.602;38.096;2024-01-30T11:36:57;15.68;;;7.65;;
69779;SDS011;57052;55.602;38.096;2024-01-30T11:39:25;18.05;;;7.85;;
69779;SDS011;57052;55.602;38.096;2024-01-30T11:41:54;20.92;;;8.30;;
69779;SDS011;57052;55.602;38.096;2024-01-30T11:44:20;18.83;;;7.60;;
69779;SDS011;57052;55.602;38.096;2024-01-30T11:46:50;16.75;;;7.63;;
69779;SDS011;57052;55.602;38.096;2024-01-30T11:49:17;16.95;;;7.60;;
69779;SDS011;57052;55.602;38.096;2024-01-30T11:51:46;15.77;;;7.28;;
69779;SDS011;57052;55.602;38.096;2024-01-30T11:54:14;21.15;;;8.13;;
69779;SDS011;57052;55.602;38.096;2024-01-30T11:56:41;16.33;;;7.22;;
69779;SDS011;57052;55.602;38.096;2024-01-30T11:59:08;23.65;;;7.72;;
69779;SDS011;57052;55.602;38.096;2024-01-30T12:01:34;19.30;;;7.85;;
69779;SDS011;57052;55.602;38.096;2024-01-30T12:04:00;19.75;;;7.43;;
69779;SDS011;57052;55.602;38.096;2024-01-30T12:06:26;20.17;;;8.35;;
69779;SDS011;57052;55.602;38.096;2024-01-30T12:08:59;16.50;;;7.43;;
69779;SDS011;57052;55.602;38.096;2024-01-30T12:11:26;16.35;;;8.20;;
69779;SDS011;57052;55.602;38.096;2024-01-30T12:13:53;22.20;;;8.38;;
69779;SDS011;57052;55.602;38.096;2024-01-30T12:16:19;18.67;;;8.25;;
69779;SDS011;57052;55.602;38.096;2024-01-30T12:18:46;26.00;;;10.57;;
69779;SDS011;57052;55.602;38.096;2024-01-30T12:21:11;16.88;;;8.20;;
69779;SDS011;57052;55.602;38.096;2024-01-30T12:23:37;17.38;;;8.30;;
69779;SDS011;57052;55.602;38.096;2024-01-30T12:26:03;20.00;;;7.85;;
69779;SDS011;57052;55.602;38.096;2024-01-30T12:28:32;19.90;;;8.95;;
69779;SDS011;57052;55.602;38.096;2024-01-30T12:31:02;21.13;;;9.25;;
69779;SDS011;57052;55.602;38.096;2024-01-30T12:33:29;18.83;;;8.05;;
69779;SDS011;57052;55.602;38.096;2024-01-30T12:36:01;21.33;;;8.50;;
69779;SDS011;57052;55.602;38.096;2024-01-30T12:38:28;20.05;;;8.55;;
69779;SDS011;57052;55.602;38.096;2024-01-30T12:40:54;22.88;;;8.88;;
69779;SDS011;57052;55.602;38.096;2024-01-30T12:43:21;19.27;;;7.93;;
69779;SDS011;57052;55.602;38.096;2024-01-30T12:45:47;20.73;;;8.65;;
69779;SDS011;57052;55.602;38.096;2024-01-30T12:48:13;19.58;;;8.23;;
69779;SDS011;57052;55.602;38.096;2024-01-30T12:50:39;18.48;;;7.88;;
69779;SDS011;57052;55.602;38.096;2024-01-30T12:53:05;21.42;;;8.50;;
69779;SDS011;57052;55.602;38.096;2024-01-30T12:55:31;20.10;;;8.63;;
69779;SDS011;57052;55.602;38.096;2024-01-30T12:57:56;20.33;;;8.05;;
69779;SDS011;57052;55.602;38.096;2024-01-30T13:00:22;17.42;;;8.10;;
69779;SDS011;57052;55.602;38.096;2024-01-30T13:02:48;18.88;;;7.85;;
69779;SDS011;57052;55.602;38.096;2024-01-30T13:05:14;19.73;;;7.88;;
69779;SDS011;57052;55.602;38.096;2024-01-30T13:07:40;15.88;;;7.10;;
69779;SDS011;57052;55.602;38.096;2024-01-30T13:10:05;21.65;;;7.45;;
69779;SDS011;57052;55.602;38.096;2024-01-30T13:12:32;19.10;;;7.43;;
69779;SDS011;57052;55.602;38.096;2024-01-30T13:14:59;18.67;;;7.90;;
69779;SDS011;57052;55.602;38.096;2024-01-30T13:17:33;17.42;;;7.50;;
69779;SDS011;57052;55.602;38.096;2024-01-30T13:19:59;18.02;;;7.30;;
69779;SDS011;57052;55.602;38.096;2024-01-30T13:22:25;17.73;;;7.50;;
69779;SDS011;57052;55.602;38.096;2024-01-30T13:24:50;16.40;;;7.35;;
69779;SDS011;57052;55.602;38.096;2024-01-30T13:27:16;19.25;;;6.75;;
69779;SDS011;57052;55.602;38.096;2024-01-30T13:29:43;15.52;;;6.47;;
69779;SDS011;57052;55.602;38.096;2024-01-30T13:32:08;15.63;;;7.47;;
69779;SDS011;57052;55.602;38.096;2024-01-30T13:34:34;14.30;;;6.78;;
69779;SDS011;57052;55.602;38.096;2024-01-30T13:37:00;16.85;;;7.10;;
69779;SDS011;57052;55.602;38.096;2024-01-30T13:39:26;16.13;;;7.18;;
69779;SDS011;57052;55.602;38.096;2024-01-30T13:41:52;15.45;;;6.95;;
69779;SDS011;57052;55.602;38.096;2024-01-30T13:44:17;22.17;;;7.32;;
69779;SDS011;57052;55.602;38.096;2024-01-30T13:46:44;18.02;;;7.57;;
69779;SDS011;57052;55.602;38.096;2024-01-30T13:49:10;19.92;;;7.13;;
69779;SDS011;57052;55.602;38.096;2024-01-30T13:51:36;16.60;;;6.90;;
69779;SDS011;57052;55.602;38.096;2024-01-30T13:54:01;15.15;;;7.25;;
69779;SDS011;57052;55.602;38.096;2024-01-30T13:56:27;16.02;;;7.10;;
69779;SDS011;57052;55.602;38.096;2024-01-30T13:58:54;19.15;;;7.68;;
69779;SDS011;57052;55.602;38.096;2024-01-30T14:01:21;17.88;;;7.38;;
69779;SDS011;57052;55.602;38.096;2024-01-30T14:03:47;17.92;;;8.15;;
69779;SDS011;57052;55.602;38.096;2024-01-30T14:06:14;19.45;;;7.65;;
69779;SDS011;57052;55.602;38.096;2024-01-30T14:08:40;17.30;;;8.38;;
69779;SDS011;57052;55.602;38.096;2024-01-30T14:11:06;18.42;;;7.68;;
69779;SDS011;57052;55.602;38.096;2024-01-30T14:13:32;16.92;;;7.43;;
69779;SDS011;57052;55.602;38.096;2024-01-30T14:15:58;18.40;;;7.70;;
69779;SDS011;57052;55.602;38.096;2024-01-30T14:18:24;20.27;;;8.27;;
69779;SDS011;57052;55.602;38.096;2024-01-30T14:20:53;18.05;;;7.50;;